Tabarka, Tunisia

3:17 PM CET on July 29, 2014 (GMT +0100)
7 November (DTKA) Elev 230 ft | 36.98 °N, 8.88 °E | Change Station

Current weather conditions updated 17 minutes ago

Scattered Clouds
Scattered Clouds
82 °F
Feels Like 86 °F
N
14
Wind Variable Wind from SW

Today is forecast to be nearly the same temperature as yesterday.

Today
High -- | Low -- °F
--% Chance of Precip.
Yesterday
High -- | Low -- °F
Precip. -- in
5:27 AM 7:34 PM
Waxing Crescent, 6% visible
Pressure 29.80 in
Visibility 6.2 miles
Clouds Scattered Clouds 2000 ft
Heat Index 86 °F
Dew Point 70 °F
Humidity 66%
Rainfall 0.00 in
Snow Depth Not available.
UV 6 out of 12
Pollen Not available.
Air Quality Not available.
Flu Activity Not available.
METAR DTKA 291400Z 23012KT 210V270 9999 SCT020 28/21 Q1009 NOSIG

More Conditions Fewer Conditions

Pressure 29.80 in
Visibility 6.2 miles
Clouds Scattered Clouds 2000 ft
Heat Index 86 °F
Dew Point 70 °F
Humidity 66%
Rainfall 0.00 in
Snow Depth Not available.
UV 6 out of 12
Pollen Not available.
Air Quality Not available.
Flu Activity Not available.
METAR DTKA 291400Z 23012KT 210V270 9999 SCT020 28/21 Q1009 NOSIG

More Conditions Fewer Conditions

10-Day Weather Forecast

Almanac

Astronomy

Jul. 29, 2014 Rise Set
Actual Time 5:27 AM CET 7:34 PM CET
Civil Twilight 4:58 AM CET 8:03 PM CET
Nautical Twilight 4:23 AM CET 8:38 PM CET
Astronomical Twilight 3:44 AM CET 9:17 PM CET
Moon 7:44 AM CET 8:44 PM CET
Length of Visible Light 15h 04m
Length of Day
14h 07m
Tomorrow will be 1m 41s shorter.
Waxing Crescent, 6% of the Moon is Illuminated
Today
Waxing Crescent
Aug 3
First Quarter
Aug 10
Full
Aug 17
Last Quarter
Aug 25
New

Yesterday's Extremes

Country Highs Country Lows

Community

WunderPhotos

Upload Photos

1,738,736 photos uploaded!

WunderBlogs® & News

Nearby

Snow Depth

Not available.

Earthquake Activity

City Distance Mag. Time & Date
No recent earthquake activity has been reported nearby.
Minimum magnitude displayed is 2.5.

Coastal Water Temperatures

Place Temperature
No Stations Reporting

Nearby Weather Stations

There are no personal weather stations in this area.